Date,TemperatureHighF,TemperatureAvgF,TemperatureLowF,DewpointHighF,DewpointAvgF,DewpointLowF,HumidityHigh,HumidityAvg,HumidityLow,PressureMaxIn,PressureMinIn,WindSpeedMaxMPH,WindSpeedAvgMPH,GustSpeedMaxMPH,PrecipitationSumIn
2014-1-1,43,34,28,-100,-100,-100,0,0,100,0.00,40.00,0,-999,0,0.00
2014-1-2,46,28,22,-100,-100,-100,0,0,100,0.00,40.00,0,-999,0,0.00
2014-1-3,47,31,23,-100,-100,-100,0,0,100,0.00,40.00,0,-999,0,0.00
2014-1-4,37,29,22,-100,-100,-100,0,0,100,0.00,40.00,0,-999,0,0.00
2014-1-5,26,16,3,-100,-100,-100,0,0,100,0.00,40.00,0,-999,0,0.00
2014-1-6,36,20,8,-100,-100,-100,0,0,100,0.00,40.00,0,-999,0,0.00
2014-1-7,40,31,22,-100,-100,-100,0,0,100,0.00,40.00,0,-999,0,0.00
2014-1-8,38,29,26,-100,-100,-100,0,0,100,0.00,40.00,0,-999,0,0.00
2014-1-9,16,16,16,-100,-100,-100,0,0,100,0.00,40.00,0,-999,0,0.00
2014-1-10,28,23,18,-100,-100,-100,0,0,100,0.00,40.00,0,-999,0,0.00
2014-1-11,48,32,20,-100,-100,-100,0,0,100,0.00,40.00,0,-999,0,0.00
2014-1-12,34,29,20,-100,-100,-100,0,0,100,0.00,40.00,0,-999,0,0.00
2014-1-13,36,24,16,-100,-100,-100,0,0,100,0.00,40.00,0,-999,0,0.00
2014-1-14,39,32,28,-100,-100,-100,0,0,100,0.00,40.00,0,-999,0,0.00
2014-1-15,51,39,26,-100,-100,-100,0,0,100,0.00,40.00,0,-999,0,0.00
2014-1-16,47,36,23,-100,-100,-100,0,0,100,0.00,40.00,0,-999,0,0.00
2014-1-17,48,31,21,-100,-100,-100,0,0,100,0.00,40.00,0,-999,0,0.00
2014-1-18,54,34,26,-100,-100,-100,0,0,100,0.00,40.00,0,-999,0,0.00
2014-1-19,50,35,23,-100,-100,-100,0,0,100,0.00,40.00,0,-999,0,0.00
2014-1-20,50,37,25,-100,-100,-100,0,0,100,0.00,40.00,0,-999,0,0.00
2014-1-21,32,24,20,-100,-100,-100,0,0,100,0.00,40.00,0,-999,0,0.00
2014-1-22,42,29,20,-100,-100,-100,0,0,100,0.00,40.00,0,-999,0,0.00
2014-1-23,37,25,21,-100,-100,-100,0,0,100,0.00,40.00,0,-999,0,0.00
2014-1-24,51,27,14,-100,-100,-100,0,0,100,0.00,40.00,0,-999,0,0.00
2014-1-25,47,35,27,-100,-100,-100,0,0,100,0.00,40.00,0,-999,0,0.00
2014-1-26,49,34,26,-100,-100,-100,0,0,100,0.00,40.00,0,-999,0,0.00
2014-1-27,37,25,22,-100,-100,-100,0,0,100,0.00,40.00,0,-999,0,0.00
2014-1-28,31,30,29,-100,-100,-100,0,0,100,0.00,40.00,0,-999,0,0.00
2014-1-29,44,36,22,-100,-100,-100,0,0,100,0.00,40.00,0,-999,0,0.00
2014-1-30,34,33,32,-100,-100,-100,0,0,100,0.00,40.00,0,-999,0,0.01
2014-1-31,33,30,26,-100,-100,-100,0,0,100,0.00,40.00,0,-999,0,0.04
2014-2-1,36,25,8,-100,-100,-100,0,0,100,0.00,40.00,0,-999,0,0.01
2014-2-2,34,19,2,-100,-100,-100,0,0,100,0.00,40.00,0,-999,0,0.01
2014-2-3,28,23,17,-100,-100,-100,0,0,100,0.00,40.00,0,-999,0,0.01
2014-2-4,28,19,11,-100,-100,-100,0,0,100,0.00,40.00,0,-999,0,0.01
2014-2-5,28,14,2,-100,-100,-100,0,0,100,0.00,40.00,0,-999,0,0.03
2014-2-6,33,24,16,-100,-100,-100,0,0,100,0.00,40.00,0,-999,0,0.00
2014-2-7,34,28,22,-100,-100,-100,0,0,100,0.00,40.00,0,-999,0,0.01
2014-2-12,41,32,19,-100,-100,-100,0,0,100,0.00,40.00,0,-999,0,0.00
2014-2-13,48,40,32,-100,-100,-100,0,0,100,0.00,40.00,0,-999,0,0.00
2014-2-14,47,42,35,-100,-100,-100,0,0,100,0.00,40.00,0,-999,0,0.00
2014-2-15,52,52,51,-100,-100,-100,0,0,100,0.00,40.00,0,-999,0,0.00
2014-2-16,48,40,33,-100,-100,-100,0,0,100,0.00,40.00,0,-999,0,0.00
2014-2-17,50,36,23,-100,-100,-100,0,0,100,0.00,40.00,0,-999,0,0.00
2014-2-18,55,47,36,-100,-100,-100,0,0,100,0.00,40.00,0,-999,0,0.00
2014-2-19,41,37,34,-100,-100,-100,0,0,100,0.00,40.00,0,-999,0,0.00
2014-2-20,36,24,13,-100,-100,-100,0,0,100,0.00,40.00,0,-999,0,0.00
2014-2-21,46,30,14,-100,-100,-100,0,0,100,0.00,40.00,0,-999,0,0.00
2014-2-22,39,33,27,-100,-100,-100,0,0,100,0.00,40.00,0,-999,0,0.00
2014-2-23,52,32,21,-100,-100,-100,0,0,100,0.00,40.00,0,-999,0,0.00
2014-2-24,32,27,25,-100,-100,-100,0,0,100,0.00,40.00,0,-999,0,0.00
2014-2-25,45,30,25,-100,-100,-100,0,0,100,0.00,40.00,0,-999,0,0.00
2014-2-26,51,35,27,-100,-100,-100,0,0,100,0.00,40.00,0,-999,0,0.00
2014-2-27,38,33,30,-100,-100,-100,0,0,100,0.00,40.00,0,-999,0,0.02
2014-2-28,40,31,24,-100,-100,-100,0,0,100,0.00,40.00,0,-999,0,0.03
2014-3-1,36,34,32,-100,-100,-100,0,0,100,0.00,40.00,0,-999,0,0.04
2014-3-2,44,32,23,-100,-100,-100,0,0,100,0.00,40.00,0,-999,0,0.01
2014-3-3,47,34,23,-100,-100,-100,0,0,100,0.00,40.00,0,-999,0,0.01
2014-3-4,47,32,21,-100,-100,-100,0,0,100,0.00,40.00,0,-999,0,0.00
2014-3-5,51,33,25,-100,-100,-100,0,0,100,0.00,40.00,0,-999,0,0.00
2014-3-6,50,34,23,-100,-100,-100,0,0,100,0.00,40.00,0,-999,0,0.00
2014-3-7,42,34,27,-100,-100,-100,0,0,100,0.00,40.00,0,-999,0,0.00
2014-3-8,46,36,25,-100,-100,-100,0,0,100,0.00,40.00,0,-999,0,0.00
2014-3-9,59,39,22,-100,-100,-100,0,0,100,0.00,40.00,0,-999,0,0.00
2014-3-10,58,39,29,-100,-100,-100,0,0,100,0.00,40.00,0,-999,0,0.00
2014-3-11,41,35,27,-100,-100,-100,0,0,100,0.00,40.00,0,-999,0,0.00
2014-3-12,45,32,18,-100,-100,-100,0,0,100,0.00,40.00,0,-999,0,0.00
2014-3-13,46,34,22,-100,-100,-100,0,0,100,0.00,40.00,0,-999,0,0.00
2014-3-14,45,35,27,-100,-100,-100,0,0,100,0.00,40.00,0,-999,0,0.00
2014-3-15,39,29,24,-100,-100,-100,0,0,100,0.00,40.00,0,-999,0,0.00
2014-3-16,52,44,35,-100,-100,-100,0,0,100,0.00,40.00,0,-999,0,0.00
2014-3-17,50,37,29,-100,-100,-100,0,0,100,0.00,40.00,0,-999,0,0.00
2014-3-18,40,30,21,-100,-100,-100,0,0,100,0.00,40.00,0,-999,0,0.00
2014-3-19,44,38,26,-100,-100,-100,0,0,100,0.00,40.00,0,-999,0,0.00
2014-3-20,49,30,20,-100,-100,-100,0,0,100,0.00,40.00,0,-999,0,0.00
2014-3-21,51,35,26,-100,-100,-100,0,0,100,0.00,40.00,0,-999,0,0.00
2014-3-22,43,36,29,-100,-100,-100,0,0,100,0.00,40.00,0,-999,0,0.00
2014-3-23,48,34,20,-100,-100,-100,0,0,100,0.00,40.00,0,-999,0,0.00
2014-3-26,34,34,33,-100,-100,-100,0,0,100,0.00,40.00,0,-999,0,0.00
2014-3-27,39,33,27,-100,-100,-100,0,0,100,0.00,40.00,0,-999,0,0.01
2014-3-28,42,32,23,-100,-100,-100,0,0,100,0.00,40.00,0,-999,0,0.01
2014-3-29,50,37,22,-100,-100,-100,0,0,100,0.00,40.00,0,-999,0,0.00
2014-3-30,46,40,33,-100,-100,-100,0,0,100,0.00,40.00,0,-999,0,0.00
2014-3-31,47,36,21,-100,-100,-100,0,0,100,0.00,40.00,0,-999,0,0.01
2014-4-1,49,43,36,-100,-100,-100,0,0,100,0.00,40.00,0,-999,0,0.00
2014-4-2,35,31,25,-100,-100,-100,0,0,100,0.00,40.00,0,-999,0,0.00
2014-4-3,42,31,23,-100,-100,-100,0,0,100,0.00,40.00,0,-999,0,0.01
2014-4-4,42,31,17,-100,-100,-100,0,0,100,0.00,40.00,0,-999,0,0.01
2014-4-5,43,34,29,-100,-100,-100,0,0,100,0.00,40.00,0,-999,0,0.01
2014-4-6,45,38,25,-100,-100,-100,0,0,100,0.00,40.00,0,-999,0,0.01
2014-4-7,47,39,28,-100,-100,-100,0,0,100,0.00,40.00,0,-999,0,0.01
2014-4-8,59,48,33,-100,-100,-100,0,0,100,0.00,40.00,0,-999,0,0.00
2014-4-9,58,44,32,-100,-100,-100,0,0,100,0.00,40.00,0,-999,0,0.00
2014-4-10,60,46,33,-100,-100,-100,0,0,100,0.00,40.00,0,-999,0,0.00
2014-4-11,61,47,34,-100,-100,-100,0,0,100,0.00,40.00,0,-999,0,0.00
2014-4-12,53,44,36,-100,-100,-100,0,0,100,0.00,40.00,0,-999,0,0.01
2014-4-13,43,37,33,-100,-100,-100,0,0,100,0.00,40.00,0,-999,0,0.00
2014-4-14,45,34,23,-100,-100,-100,0,0,100,0.00,40.00,0,-999,0,0.00
2014-4-15,28,28,28,-100,-100,-100,0,0,100,0.00,40.00,0,-999,0,0.00
2014-4-17,57,42,29,-100,-100,-100,0,0,100,0.00,40.00,0,-999,0,0.00
2014-4-18,58,44,33,-100,-100,-100,0,0,100,0.00,40.00,0,-999,0,0.00
2014-4-19,50,42,37,-100,-100,-100,0,0,100,0.00,40.00,0,-999,0,0.01
2014-4-20,60,47,35,-100,-100,-100,0,0,100,0.00,40.00,0,-999,0,0.00
2014-4-21,64,50,35,-100,-100,-100,0,0,100,0.00,40.00,0,-999,0,0.01
2014-4-22,58,49,38,-100,-100,-100,0,0,100,0.00,40.00,0,-999,0,0.00
2014-4-23,52,45,34,-100,-100,-100,0,0,100,0.00,40.00,0,-999,0,0.01
2014-4-24,57,42,28,-100,-100,-100,0,0,100,0.00,40.00,0,-999,0,0.00
2014-4-25,59,55,48,-100,-100,-100,0,0,100,0.00,40.00,0,-999,0,0.01
2014-4-26,46,39,28,-100,-100,-100,0,0,100,0.00,40.00,0,-999,0,0.00
2014-4-27,39,32,27,-100,-100,-100,0,0,100,0.00,40.00,0,-999,0,0.02
2014-4-28,40,33,28,-100,-100,-100,0,0,100,0.00,40.00,0,-999,0,0.01
2014-4-29,41,32,22,-100,-100,-100,0,0,100,0.00,40.00,0,-999,0,0.01
2014-4-30,47,38,28,-100,-100,-100,0,0,100,0.00,40.00,0,-999,0,0.01
2014-5-1,50,38,26,-100,-100,-100,0,0,100,0.00,40.00,0,-999,0,0.00
2014-5-2,63,46,32,-100,-100,-100,0,0,100,0.00,40.00,0,-999,0,0.01
2014-5-3,67,51,35,-100,-100,-100,0,0,100,0.00,40.00,0,-999,0,0.01
2014-5-4,64,52,38,-100,-100,-100,0,0,100,0.00,40.00,0,-999,0,0.00
2014-5-5,66,62,59,-100,-100,-100,0,0,100,0.00,40.00,0,-999,0,0.00
2014-5-6,57,50,40,-100,-100,-100,0,0,100,0.00,40.00,0,-999,0,0.00
2014-5-13,45,35,29,-100,-100,-100,0,0,100,0.00,40.00,0,-999,0,0.00
2014-5-14,52,37,23,-100,-100,-100,0,0,100,0.00,40.00,0,-999,0,0.00
2014-5-15,59,44,32,-100,-100,-100,0,0,100,0.00,40.00,0,-999,0,0.00
2014-5-16,66,50,36,-100,-100,-100,0,0,100,0.00,40.00,0,-999,0,0.00
2014-5-17,67,51,39,-100,-100,-100,0,0,100,0.00,40.00,0,-999,0,0.00
2014-5-18,65,56,41,-100,-100,-100,0,0,100,0.00,40.00,0,-999,0,0.00
2014-5-19,66,55,38,-100,-100,-100,0,0,100,0.00,40.00,0,-999,0,0.00
2014-5-20,66,53,37,-100,-100,-100,0,0,100,0.00,40.00,0,-999,0,0.00
2014-5-21,58,54,46,-100,-100,-100,0,0,100,0.00,40.00,0,-999,0,0.00
2014-5-22,59,50,40,-100,-100,-100,0,0,100,0.00,40.00,0,-999,0,0.00
2014-5-23,46,42,38,-100,-100,-100,0,0,100,0.00,40.00,0,-999,0,0.01
2014-5-24,56,44,34,-100,-100,-100,0,0,100,0.00,40.00,0,-999,0,0.01
2014-5-25,48,41,36,-100,-100,-100,0,0,100,0.00,40.00,0,-999,0,0.02
2014-5-26,65,50,35,-100,-100,-100,0,0,100,0.00,40.00,0,-999,0,0.01
2014-5-27,71,52,41,-100,-100,-100,0,0,100,0.00,40.00,0,-999,0,0.00
2014-5-28,70,58,43,-100,-100,-100,0,0,100,0.00,40.00,0,-999,0,0.00
2014-5-29,67,55,50,-100,-100,-100,0,0,100,0.00,40.00,0,-999,0,0.00
2014-5-30,63,53,46,-100,-100,-100,0,0,100,0.00,40.00,0,-999,0,0.01
2014-5-31,70,57,43,-100,-100,-100,0,0,100,0.00,40.00,0,-999,0,0.01
2014-6-1,68,56,43,-100,-100,-100,0,0,100,0.00,40.00,0,-999,0,0.00
2014-6-2,73,59,40,-100,-100,-100,0,0,100,0.00,40.00,0,-999,0,0.00
2014-6-3,70,56,47,-100,-100,-100,0,0,100,0.00,40.00,0,-999,0,0.01
2014-6-4,73,57,41,-100,-100,-100,0,0,100,0.00,40.00,0,-999,0,0.00
2014-6-5,74,68,54,-100,-100,-100,0,0,100,0.00,40.00,0,-999,0,0.01
2014-6-6,74,58,41,-100,-100,-100,0,0,100,0.00,40.00,0,-999,0,0.01
2014-6-7,68,58,46,-100,-100,-100,0,0,100,0.00,40.00,0,-999,0,0.00
2014-6-8,62,50,43,-100,-100,-100,0,0,100,0.00,40.00,0,-999,0,0.00
2014-6-9,70,54,40,-100,-100,-100,0,0,100,0.00,40.00,0,-999,0,0.02
2014-6-10,74,58,41,-100,-100,-100,0,0,100,0.00,40.00,0,-999,0,0.01
2014-6-11,74,58,47,-100,-100,-100,0,0,100,0.00,40.00,0,-999,0,0.01
2014-6-12,72,55,43,-100,-100,-100,0,0,100,0.00,40.00,0,-999,0,0.00
2014-6-13,72,57,45,-100,-100,-100,0,0,100,0.00,40.00,0,-999,0,0.01
2014-6-14,65,54,42,-100,-100,-100,0,0,100,0.00,40.00,0,-999,0,0.00
2014-6-15,68,51,36,-100,-100,-100,0,0,100,0.00,40.00,0,-999,0,0.01
2014-6-16,66,55,38,-100,-100,-100,0,0,100,0.00,40.00,0,-999,0,0.00
2014-6-17,67,56,43,-100,-100,-100,0,0,100,0.00,40.00,0,-999,0,0.00
2014-6-18,63,53,43,-100,-100,-100,0,0,100,0.00,40.00,0,-999,0,0.00
2014-6-19,70,52,37,-100,-100,-100,0,0,100,0.00,40.00,0,-999,0,0.02
2014-6-20,74,56,40,-100,-100,-100,0,0,100,0.00,40.00,0,-999,0,0.01
2014-6-21,71,58,45,-100,-100,-100,0,0,100,0.00,40.00,0,-999,0,0.00
2014-6-22,74,58,46,-100,-100,-100,0,0,100,0.00,40.00,0,-999,0,0.00
2014-6-23,69,56,47,-100,-100,-100,0,0,100,0.00,40.00,0,-999,0,0.00
2014-6-24,77,58,44,-100,-100,-100,0,0,100,0.00,40.00,0,-999,0,0.01
2014-6-25,75,56,45,-100,-100,-100,0,0,100,0.00,40.00,0,-999,0,0.01
2014-6-26,74,61,46,-100,-100,-100,0,0,100,0.00,40.00,0,-999,0,0.00
2014-6-27,65,58,47,-100,-100,-100,0,0,100,0.00,40.00,0,-999,0,0.00
2014-6-28,75,56,46,-100,-100,-100,0,0,100,0.00,40.00,0,-999,0,0.02
2014-6-29,80,62,46,-100,-100,-100,0,0,100,0.00,40.00,0,-999,0,0.01
2014-6-30,81,63,51,-100,-100,-100,0,0,100,0.00,40.00,0,-999,0,0.01
2014-7-1,78,64,50,-100,-100,-100,0,0,100,0.00,40.00,0,-999,0,0.01
2014-7-2,74,59,46,-100,-100,-100,0,0,100,0.00,40.00,0,-999,0,0.00
2014-7-3,67,56,50,-100,-100,-100,0,0,100,0.00,40.00,0,-999,0,0.00
2014-7-4,72,57,48,-100,-100,-100,0,0,100,0.00,40.00,0,-999,0,0.00
2014-7-5,64,53,48,-100,-100,-100,0,0,100,0.00,40.00,0,-999,0,0.00
2014-7-6,81,66,50,-100,-100,-100,0,0,100,0.00,40.00,0,-999,0,0.02
2014-7-7,75,58,50,-100,-100,-100,0,0,100,0.00,40.00,0,-999,0,0.01
2014-7-8,73,54,50,-100,-100,-100,0,0,100,0.00,40.00,0,-999,0,0.01
2014-7-9,73,55,47,-100,-100,-100,0,0,100,0.00,40.00,0,-999,0,0.01
2014-7-10,73,60,48,-100,0,200,0,0,100,0.00,40.00,0,0,0,0.01
2014-7-11,75,60,51,-100,0,200,0,0,100,0.00,40.00,0,0,0,0.01
2014-7-12,70,55,51,-100,0,200,0,0,100,0.00,40.00,0,0,0,0.01
2014-7-13,69,58,49,-100,0,200,0,0,100,0.00,40.00,0,0,0,0.04
2014-7-14,75,63,53,-100,0,200,0,0,100,0.00,40.00,0,0,0,0.01
2014-7-15,70,60,54,-100,0,200,0,0,100,0.00,40.00,0,0,0,0.00